• Join FlightAware (Why Join?)
  • Login
  • US Flag 
04:27AM EDT


 

Airport Tracker/Info


-or-


 

Live Flight TrackerFlight Track Log ✈ FIV606 ✈ 13-May-2013 ✈ MMTO / TLC - KTPA

Flight Track Log - Related Links

Times and Time Zones

All times are in EDT time to prevent confusion due to time zone crossing. See the FIV606 flight status page for this flight to view local times or setup timezone preferences in your user account.

Time Position Orientation Groundspeed Altitude Reporting Facility
EDT Latitude Longitude Course Direction KTS MPH feet Rate Location/Type
01:20PM 25.3439 -88.3977 58° Northeast  Level Estimated
01:21PM 25.4022 -88.2761 62° Northeast  Level Estimated
01:22PM 25.4604 -88.1544 62° Northeast  Level Estimated
01:23PM 25.5184 -88.0325 62° Northeast  Level Estimated
01:24PM 25.5764 -87.9105 62° Northeast  Level Estimated
01:25PM 25.6342 -87.7884 62° Northeast  Level Estimated
01:26PM 25.6920 -87.6662 62° Northeast  Level Estimated
01:27PM 25.7497 -87.5438 62° Northeast  Level Estimated
01:28PM 25.8072 -87.4214 62° Northeast  Level Estimated
01:29PM 25.8647 -87.2988 62° Northeast  Level Estimated
01:30PM 25.9220 -87.1761 63° Northeast  Level Estimated
01:30PM 25.9325 -86.1497 63° Northeast 489 563 41,000  Level Houston Center
01:31PM 25.9793 -87.0533 63° Northeast  Level Estimated
01:31PM 26.0361 -86.0022 52° Northeast 502 578 41,000  Level Houston Center
01:32PM 26.0364 -86.9303 63° Northeast  Level Estimated
01:32PM 26.1406 -85.9086 39° Northeast 484 557 41,000  Level Houston Center
01:33PM 26.0934 -86.8073 63° Northeast  Level Estimated
01:33PM 26.2472 -85.8186 37° Northeast 480 552 41,000  Level Houston Center
01:34PM 26.1504 -86.6841 63° Northeast  Level Estimated
01:34PM 26.3308 -85.6964 53° Northeast 494 568 41,000  Level Houston Center
01:35PM 26.2072 -86.5608 63° Northeast  Level Estimated
01:35PM 26.4133 -85.5692 54° Northeast 503 579 41,000  Level Houston Center
01:36PM 26.5117 -85.4175 54° Northeast 503 579 41,000 -480 Level Houston Center
01:37PM 26.5919 -85.2881 55° Northeast 506 582 40,100 -1,020 Descending Houston Center
01:37PM 26.6150 -85.2542 53° Northeast 507 583 39,700 -1,980 Descending Miami Center
01:38PM 26.6753 -85.1583 55° Northeast 513 590 38,100 -2,040 Descending Houston Center
01:38PM 26.6953 -85.1231 58° Northeast 507 583 37,700 -1,920 Descending Miami Center
01:39PM 26.7822 -84.9875 54° Northeast 518 596 35,700 -2,040 Descending Miami Center
01:40PM 26.8689 -84.8517 54° Northeast 530 610 33,700 -2,040 Descending Miami Center
01:41PM 26.9578 -84.7136 54° Northeast 530 610 31,700 -1,980 Descending Miami Center
01:42PM 27.0381 -84.5794 56° Northeast 531 611 29,800 -1,920 Descending Miami Center
01:43PM 27.1203 -84.4475 55° Northeast 526 605 27,900 -1,800 Descending Miami Center
01:44PM 27.1997 -84.3219 55° Northeast 510 587 26,200 -1,740 Descending Miami Center
01:45PM 27.2744 -84.2078 54° Northeast 481 554 24,500 -1,680 Descending Miami Center
01:46PM 27.3469 -84.0889 56° Northeast 460 529 22,900 -1,680 Descending Miami Center
01:48PM 27.4897 -83.8592 55° Northeast 450 518 19,600 -1,620 Descending Miami Center
01:49PM 27.5597 -83.7467 55° Northeast 438 504 18,100 -1,440 Descending Miami Center
01:50PM 27.6192 -83.6400 58° Northeast 425 489 16,800 -1,500 Descending Miami Center
01:51PM 27.6844 -83.5386 54° Northeast 411 473 15,100 -1,560 Descending Miami Center
01:52PM 27.7494 -83.4369 54° Northeast 401 461 13,700 -1,380 Descending Miami Center
01:53PM 27.8083 -83.3372 56° Northeast 395 455 12,400 -1,380 Descending Miami Center
01:54PM 27.8669 -83.2394 56° Northeast 383 441 11,000 -1,260 Descending Miami Center
01:55PM 27.9214 -83.1392 58° Northeast 378 435 9,900 -1,200 Descending Miami Center
01:56PM 27.9236 -83.0408 89° East 342 394 8,600 -1,560 Descending Miami Center
01:57PM 27.8983 -82.9478 107° East 307 353 6,800 -1,920 Descending Miami Center
01:58PM 27.8833 -82.8500 100° East 296 341 5,000 -1,140 Descending Tampa TRACON
01:59PM 27.8500 -82.7667 114° Southeast 288 331 4,600 -840 Descending Tampa TRACON
02:00PM 27.8333 -82.7000 106° East 274 315 3,400 -840 Descending Tampa TRACON
02:02PM 27.8833 -82.5500 69° East 227 261 2,200 -900 Descending Tampa TRACON
02:03PM 27.9333 -82.5500 360° North 147 169 700 -1,080 Descending Tampa TRACON
02:04PM 27.9667 -82.5500 360° North 116 133 100 -600 Descending Tampa TRACON
02:06PM 27.9755 -82.5332 19° North  Level Estimated
02:13PM 27.9755 -82.5332 19° North  Level Estimated